Orlando, FL

11:57 AM EST on March 01, 2015 (GMT -0500)
WFTV, Channel 9 | Change Station
CLOSE
Current Station
Personal Weather Station
Location: Orlando, FL
Elevation: 92 ft
Nearby Weather Stations

Elev 92 ft 28.54 °N, 81.37 °W | Updated 3 minutes ago

Overcast
Overcast
75.6 °F
Feels Like 76 °F
N
7.0
Wind Variable Wind from East
Gusts 8.0 mph

Today
High -- | Low -- °F
--% Chance of Precip.
Yesterday
High -- | Low -- °F
Precip. -- in
6:50 AM 6:25 PM
Waxing Gibbous, 86% visible
Pressure 30.36 in
Visibility 10.0 miles
Clouds Overcast 2000 ft
Heat Index 76 °F
Dew Point 70 °F
Humidity 83%
Rainfall 0.00 in
Snow Depth Not available.
UV 3 out of 12
Pollen 9.20 out of 12
Air Quality Not available.
Flu Activity Not available.
METAR KISM 011650Z 10006KT 10SM OVC020 24/22 A3036

More Conditions Fewer Conditions

Pressure 30.36 in
Visibility 10.0 miles
Clouds Overcast 2000 ft
Heat Index 76 °F
Dew Point 70 °F
Humidity 83%
Rainfall 0.00 in
Snow Depth Not available.
UV 3 out of 12
Pollen 9.20 out of 12
Air Quality Not available.
Flu Activity Not available.
METAR KISM 011650Z 10006KT 10SM OVC020 24/22 A3036

More Conditions Fewer Conditions

Nowcast | as of 11:57 am EST on March 1, 2015

Skies will generally remain mostly cloudy over northern sections of east central Florida with more sunshine expected over Okeechobee County and the Treasure Coast. Isolated to scattered light showers will continue to develop over the waters...mainly moving onshore southern Brevard County through early afternoon. Additional light showers will develop over the interior today and push northwest. Highs will range this afternoon from the mid 70s along the Volusia County coast to the upper 70s and low 80s farther south and inland. Additional details...including graphics are available online at: http://www.Srh.NOAA.Gov/mlb/blog.Php

×

10-Day Weather Forecast

Almanac

Astronomy

Mar. 01, 2015 Rise Set
Actual Time
Civil Twilight
Nautical Twilight
Astronomical Twilight
Moon
Length of Visible Light
Length of Day
Tomorrow will be .
, % of the Moon is Illuminated

Today's Extremes

State Highs State Lows

Community

WunderPhotos

Upload Photos

1,801,451 photos uploaded!

WunderBlogs® & News

Nearby

Air Quality

  Air Quality AQ Index Pollutant
Not available.

Snow Depth

Station Depth Elevation

Earthquake Activity

City Distance Mag. Time & Date
Minimum magnitude displayed is 2.5.

Coastal Water Temperatures

Place Temperature

Nearby Weather Stations